sensor_id;sensor_type;location;lat;lon;timestamp;P1;durP1;ratioP1;P2;durP2;ratioP2
75167;SDS011;63748;48.088;11.476;2023-02-24T00:00:21;3.63;;;1.83;;
75167;SDS011;63748;48.088;11.476;2023-02-24T00:03:01;3.25;;;1.77;;
75167;SDS011;63748;48.088;11.476;2023-02-24T00:05:31;3.30;;;1.70;;
75167;SDS011;63748;48.088;11.476;2023-02-24T00:07:57;3.17;;;1.63;;
75167;SDS011;63748;48.088;11.476;2023-02-24T00:10:23;3.60;;;2.05;;
75167;SDS011;63748;48.088;11.476;2023-02-24T00:12:49;4.53;;;2.17;;
75167;SDS011;63748;48.088;11.476;2023-02-24T00:15:18;4.30;;;1.83;;
75167;SDS011;63748;48.088;11.476;2023-02-24T00:17:44;2.88;;;1.52;;
75167;SDS011;63748;48.088;11.476;2023-02-24T00:20:11;5.50;;;1.70;;
75167;SDS011;63748;48.088;11.476;2023-02-24T00:22:38;5.70;;;1.95;;
75167;SDS011;63748;48.088;11.476;2023-02-24T00:25:05;4.95;;;1.80;;
75167;SDS011;63748;48.088;11.476;2023-02-24T00:27:31;4.25;;;1.60;;
75167;SDS011;63748;48.088;11.476;2023-02-24T00:29:58;4.93;;;1.50;;
75167;SDS011;63748;48.088;11.476;2023-02-24T00:32:25;3.58;;;1.73;;
75167;SDS011;63748;48.088;11.476;2023-02-24T00:34:51;2.47;;;1.60;;
75167;SDS011;63748;48.088;11.476;2023-02-24T00:37:17;2.42;;;1.60;;
75167;SDS011;63748;48.088;11.476;2023-02-24T00:39:48;5.07;;;1.88;;
75167;SDS011;63748;48.088;11.476;2023-02-24T00:42:14;5.75;;;2.15;;
75167;SDS011;63748;48.088;11.476;2023-02-24T00:44:44;2.25;;;1.42;;
75167;SDS011;63748;48.088;11.476;2023-02-24T00:47:11;2.38;;;1.50;;
75167;SDS011;63748;48.088;11.476;2023-02-24T00:49:38;3.13;;;1.85;;
75167;SDS011;63748;48.088;11.476;2023-02-24T00:52:07;3.20;;;1.60;;
75167;SDS011;63748;48.088;11.476;2023-02-24T00:54:36;3.42;;;1.88;;
75167;SDS011;63748;48.088;11.476;2023-02-24T00:57:02;4.05;;;1.85;;
75167;SDS011;63748;48.088;11.476;2023-02-24T00:59:28;3.78;;;1.30;;
75167;SDS011;63748;48.088;11.476;2023-02-24T01:01:55;4.47;;;2.05;;
75167;SDS011;63748;48.088;11.476;2023-02-24T01:04:21;4.10;;;1.52;;
75167;SDS011;63748;48.088;11.476;2023-02-24T01:06:48;2.63;;;1.50;;
75167;SDS011;63748;48.088;11.476;2023-02-24T01:09:15;4.05;;;1.10;;
75167;SDS011;63748;48.088;11.476;2023-02-24T01:11:42;2.58;;;1.52;;
75167;SDS011;63748;48.088;11.476;2023-02-24T01:14:28;2.42;;;1.48;;
75167;SDS011;63748;48.088;11.476;2023-02-24T01:16:54;4.43;;;1.77;;
75167;SDS011;63748;48.088;11.476;2023-02-24T01:19:22;3.88;;;1.60;;
75167;SDS011;63748;48.088;11.476;2023-02-24T01:21:48;4.55;;;1.30;;
75167;SDS011;63748;48.088;11.476;2023-02-24T01:24:22;4.22;;;1.40;;
75167;SDS011;63748;48.088;11.476;2023-02-24T01:26:49;4.05;;;1.52;;
75167;SDS011;63748;48.088;11.476;2023-02-24T01:29:15;3.17;;;1.33;;
75167;SDS011;63748;48.088;11.476;2023-02-24T01:31:41;3.80;;;1.58;;
75167;SDS011;63748;48.088;11.476;2023-02-24T01:34:10;3.30;;;1.75;;
75167;SDS011;63748;48.088;11.476;2023-02-24T01:36:37;3.95;;;1.73;;
75167;SDS011;63748;48.088;11.476;2023-02-24T01:39:04;3.83;;;1.73;;
75167;SDS011;63748;48.088;11.476;2023-02-24T01:41:35;4.43;;;1.75;;
75167;SDS011;63748;48.088;11.476;2023-02-24T01:46:34;3.60;;;1.70;;
75167;SDS011;63748;48.088;11.476;2023-02-24T01:49:04;3.88;;;1.88;;
75167;SDS011;63748;48.088;11.476;2023-02-24T01:51:58;4.20;;;1.67;;
75167;SDS011;63748;48.088;11.476;2023-02-24T01:54:23;3.13;;;1.40;;
75167;SDS011;63748;48.088;11.476;2023-02-24T01:59:16;3.47;;;1.63;;
75167;SDS011;63748;48.088;11.476;2023-02-24T02:01:44;3.30;;;1.98;;
75167;SDS011;63748;48.088;11.476;2023-02-24T02:04:16;5.18;;;1.88;;
75167;SDS011;63748;48.088;11.476;2023-02-24T02:06:44;4.35;;;1.75;;
75167;SDS011;63748;48.088;11.476;2023-02-24T02:09:11;4.18;;;2.05;;
75167;SDS011;63748;48.088;11.476;2023-02-24T02:11:39;4.88;;;2.10;;
75167;SDS011;63748;48.088;11.476;2023-02-24T02:14:05;4.32;;;1.85;;
75167;SDS011;63748;48.088;11.476;2023-02-24T02:19:18;3.30;;;1.70;;
75167;SDS011;63748;48.088;11.476;2023-02-24T02:22:00;4.05;;;1.80;;
75167;SDS011;63748;48.088;11.476;2023-02-24T02:32:22;4.68;;;2.45;;
75167;SDS011;63748;48.088;11.476;2023-02-24T02:37:31;3.47;;;2.10;;
75167;SDS011;63748;48.088;11.476;2023-02-24T02:40:04;3.78;;;2.22;;
75167;SDS011;63748;48.088;11.476;2023-02-24T02:45:18;3.58;;;1.73;;
75167;SDS011;63748;48.088;11.476;2023-02-24T02:47:55;2.95;;;1.75;;
75167;SDS011;63748;48.088;11.476;2023-02-24T02:52:50;3.97;;;1.80;;
75167;SDS011;63748;48.088;11.476;2023-02-24T02:55:20;4.22;;;1.80;;
75167;SDS011;63748;48.088;11.476;2023-02-24T02:57:48;4.50;;;2.33;;
75167;SDS011;63748;48.088;11.476;2023-02-24T03:02:47;5.05;;;2.45;;
75167;SDS011;63748;48.088;11.476;2023-02-24T03:05:14;11.40;;;2.60;;
75167;SDS011;63748;48.088;11.476;2023-02-24T03:07:43;3.13;;;1.85;;
75167;SDS011;63748;48.088;11.476;2023-02-24T03:10:11;2.65;;;1.70;;
75167;SDS011;63748;48.088;11.476;2023-02-24T03:12:45;4.05;;;2.45;;
75167;SDS011;63748;48.088;11.476;2023-02-24T03:15:12;5.18;;;2.28;;
75167;SDS011;63748;48.088;11.476;2023-02-24T03:17:40;5.80;;;2.25;;
75167;SDS011;63748;48.088;11.476;2023-02-24T03:22:44;3.63;;;1.95;;
75167;SDS011;63748;48.088;11.476;2023-02-24T03:25:13;4.50;;;2.22;;
75167;SDS011;63748;48.088;11.476;2023-02-24T03:27:48;2.83;;;1.65;;
75167;SDS011;63748;48.088;11.476;2023-02-24T03:32:48;3.83;;;1.95;;
75167;SDS011;63748;48.088;11.476;2023-02-24T03:35:28;3.38;;;1.98;;
75167;SDS011;63748;48.088;11.476;2023-02-24T03:37:55;3.85;;;2.13;;
75167;SDS011;63748;48.088;11.476;2023-02-24T03:40:23;4.05;;;2.63;;
75167;SDS011;63748;48.088;11.476;2023-02-24T03:43:02;7.40;;;2.92;;
75167;SDS011;63748;48.088;11.476;2023-02-24T03:45:29;4.82;;;2.67;;
75167;SDS011;63748;48.088;11.476;2023-02-24T03:47:56;4.47;;;2.60;;
75167;SDS011;63748;48.088;11.476;2023-02-24T03:50:23;5.18;;;2.92;;
75167;SDS011;63748;48.088;11.476;2023-02-24T03:52:58;8.82;;;3.47;;
75167;SDS011;63748;48.088;11.476;2023-02-24T04:03:19;5.40;;;2.63;;
75167;SDS011;63748;48.088;11.476;2023-02-24T04:08:16;4.95;;;2.45;;
75167;SDS011;63748;48.088;11.476;2023-02-24T04:15:44;3.67;;;2.35;;
75167;SDS011;63748;48.088;11.476;2023-02-24T04:18:16;4.78;;;2.00;;
75167;SDS011;63748;48.088;11.476;2023-02-24T04:20:43;5.38;;;2.42;;
75167;SDS011;63748;48.088;11.476;2023-02-24T04:23:14;6.13;;;2.55;;
75167;SDS011;63748;48.088;11.476;2023-02-24T04:25:41;3.10;;;2.03;;
75167;SDS011;63748;48.088;11.476;2023-02-24T04:28:08;4.32;;;2.53;;
75167;SDS011;63748;48.088;11.476;2023-02-24T04:30:37;4.70;;;1.98;;
75167;SDS011;63748;48.088;11.476;2023-02-24T04:33:05;6.80;;;2.63;;
75167;SDS011;63748;48.088;11.476;2023-02-24T04:35:31;3.55;;;2.35;;
75167;SDS011;63748;48.088;11.476;2023-02-24T04:37:58;4.05;;;2.15;;
75167;SDS011;63748;48.088;11.476;2023-02-24T04:40:24;6.18;;;2.85;;
75167;SDS011;63748;48.088;11.476;2023-02-24T04:42:51;4.70;;;2.42;;
75167;SDS011;63748;48.088;11.476;2023-02-24T04:45:25;4.15;;;2.50;;
75167;SDS011;63748;48.088;11.476;2023-02-24T04:47:52;4.80;;;2.60;;
75167;SDS011;63748;48.088;11.476;2023-02-24T04:50:25;4.15;;;2.40;;
75167;SDS011;63748;48.088;11.476;2023-02-24T04:52:55;4.47;;;2.38;;
75167;SDS011;63748;48.088;11.476;2023-02-24T04:55:25;3.45;;;2.70;;
75167;SDS011;63748;48.088;11.476;2023-02-24T04:57:53;4.43;;;2.45;;
75167;SDS011;63748;48.088;11.476;2023-02-24T05:00:20;4.35;;;2.42;;
75167;SDS011;63748;48.088;11.476;2023-02-24T05:02:50;4.63;;;2.20;;
75167;SDS011;63748;48.088;11.476;2023-02-24T05:05:17;5.28;;;2.55;;
75167;SDS011;63748;48.088;11.476;2023-02-24T05:07:50;4.18;;;2.47;;
75167;SDS011;63748;48.088;11.476;2023-02-24T05:10:17;5.45;;;2.45;;
75167;SDS011;63748;48.088;11.476;2023-02-24T05:12:43;4.03;;;2.28;;
75167;SDS011;63748;48.088;11.476;2023-02-24T05:15:09;3.63;;;2.05;;
75167;SDS011;63748;48.088;11.476;2023-02-24T05:17:38;3.45;;;1.83;;
75167;SDS011;63748;48.088;11.476;2023-02-24T05:20:06;4.35;;;2.10;;
75167;SDS011;63748;48.088;11.476;2023-02-24T05:22:50;5.65;;;1.95;;
75167;SDS011;63748;48.088;11.476;2023-02-24T05:25:17;4.68;;;2.10;;
75167;SDS011;63748;48.088;11.476;2023-02-24T05:27:43;3.20;;;1.88;;
75167;SDS011;63748;48.088;11.476;2023-02-24T05:30:09;2.70;;;1.95;;
75167;SDS011;63748;48.088;11.476;2023-02-24T05:32:35;4.10;;;2.20;;
75167;SDS011;63748;48.088;11.476;2023-02-24T05:35:02;4.95;;;2.75;;
75167;SDS011;63748;48.088;11.476;2023-02-24T05:37:29;3.13;;;2.00;;
75167;SDS011;63748;48.088;11.476;2023-02-24T05:39:58;4.60;;;2.78;;
75167;SDS011;63748;48.088;11.476;2023-02-24T05:42:24;3.35;;;2.30;;
75167;SDS011;63748;48.088;11.476;2023-02-24T05:44:51;4.40;;;2.28;;
75167;SDS011;63748;48.088;11.476;2023-02-24T05:47:17;4.43;;;2.40;;
75167;SDS011;63748;48.088;11.476;2023-02-24T05:49:45;5.82;;;1.90;;
75167;SDS011;63748;48.088;11.476;2023-02-24T05:52:12;4.05;;;2.13;;
75167;SDS011;63748;48.088;11.476;2023-02-24T05:54:39;4.85;;;2.58;;
75167;SDS011;63748;48.088;11.476;2023-02-24T05:57:09;4.65;;;2.15;;
75167;SDS011;63748;48.088;11.476;2023-02-24T05:59:36;5.25;;;2.47;;
75167;SDS011;63748;48.088;11.476;2023-02-24T06:02:05;5.53;;;2.50;;
75167;SDS011;63748;48.088;11.476;2023-02-24T06:04:33;4.85;;;2.33;;
75167;SDS011;63748;48.088;11.476;2023-02-24T06:09:37;6.30;;;2.53;;
75167;SDS011;63748;48.088;11.476;2023-02-24T06:12:07;3.03;;;1.83;;
75167;SDS011;63748;48.088;11.476;2023-02-24T06:14:33;3.80;;;2.35;;
75167;SDS011;63748;48.088;11.476;2023-02-24T06:16:59;5.93;;;2.17;;
75167;SDS011;63748;48.088;11.476;2023-02-24T06:19:28;5.90;;;2.63;;
75167;SDS011;63748;48.088;11.476;2023-02-24T06:21:58;4.70;;;2.20;;
75167;SDS011;63748;48.088;11.476;2023-02-24T06:24:29;5.32;;;2.25;;
75167;SDS011;63748;48.088;11.476;2023-02-24T06:26:56;3.70;;;2.33;;
75167;SDS011;63748;48.088;11.476;2023-02-24T06:29:26;5.65;;;2.30;;
75167;SDS011;63748;48.088;11.476;2023-02-24T06:31:53;4.65;;;2.17;;
75167;SDS011;63748;48.088;11.476;2023-02-24T06:34:21;3.85;;;2.22;;
75167;SDS011;63748;48.088;11.476;2023-02-24T06:36:49;4.50;;;2.70;;
75167;SDS011;63748;48.088;11.476;2023-02-24T06:39:16;6.15;;;2.40;;
75167;SDS011;63748;48.088;11.476;2023-02-24T06:41:43;5.68;;;2.20;;
75167;SDS011;63748;48.088;11.476;2023-02-24T06:44:09;5.75;;;2.53;;
75167;SDS011;63748;48.088;11.476;2023-02-24T06:46:35;3.05;;;1.95;;
75167;SDS011;63748;48.088;11.476;2023-02-24T06:49:02;3.58;;;2.30;;
75167;SDS011;63748;48.088;11.476;2023-02-24T06:51:28;3.78;;;2.03;;
75167;SDS011;63748;48.088;11.476;2023-02-24T06:53:55;5.93;;;2.65;;
75167;SDS011;63748;48.088;11.476;2023-02-24T06:56:21;8.48;;;3.22;;
75167;SDS011;63748;48.088;11.476;2023-02-24T06:58:51;9.60;;;4.20;;
75167;SDS011;63748;48.088;11.476;2023-02-24T07:01:24;10.85;;;3.58;;
75167;SDS011;63748;48.088;11.476;2023-02-24T07:03:53;13.90;;;4.85;;
75167;SDS011;63748;48.088;11.476;2023-02-24T07:06:37;9.02;;;3.47;;
75167;SDS011;63748;48.088;11.476;2023-02-24T07:09:12;5.28;;;3.03;;
75167;SDS011;63748;48.088;11.476;2023-02-24T07:11:39;9.10;;;3.45;;
75167;SDS011;63748;48.088;11.476;2023-02-24T07:14:06;10.45;;;3.35;;
75167;SDS011;63748;48.088;11.476;2023-02-24T07:16:33;8.50;;;2.88;;
75167;SDS011;63748;48.088;11.476;2023-02-24T07:19:00;8.85;;;3.03;;
75167;SDS011;63748;48.088;11.476;2023-02-24T07:21:27;6.28;;;3.35;;
75167;SDS011;63748;48.088;11.476;2023-02-24T07:23:54;6.38;;;3.28;;
75167;SDS011;63748;48.088;11.476;2023-02-24T07:26:22;5.32;;;2.75;;
75167;SDS011;63748;48.088;11.476;2023-02-24T07:28:48;4.82;;;2.42;;
75167;SDS011;63748;48.088;11.476;2023-02-24T07:31:15;7.43;;;3.28;;
75167;SDS011;63748;48.088;11.476;2023-02-24T07:33:42;7.32;;;3.25;;
75167;SDS011;63748;48.088;11.476;2023-02-24T07:36:09;8.32;;;3.33;;
75167;SDS011;63748;48.088;11.476;2023-02-24T07:38:39;5.47;;;3.13;;
75167;SDS011;63748;48.088;11.476;2023-02-24T07:41:06;6.80;;;3.33;;
75167;SDS011;63748;48.088;11.476;2023-02-24T07:43:35;5.72;;;3.15;;
75167;SDS011;63748;48.088;11.476;2023-02-24T07:46:09;8.55;;;4.20;;
75167;SDS011;63748;48.088;11.476;2023-02-24T07:48:36;7.35;;;3.60;;
75167;SDS011;63748;48.088;11.476;2023-02-24T07:51:06;6.45;;;4.10;;
75167;SDS011;63748;48.088;11.476;2023-02-24T07:53:32;7.32;;;3.58;;
75167;SDS011;63748;48.088;11.476;2023-02-24T07:55:58;7.00;;;3.30;;
75167;SDS011;63748;48.088;11.476;2023-02-24T07:58:24;7.97;;;3.28;;
75167;SDS011;63748;48.088;11.476;2023-02-24T08:00:52;5.03;;;2.65;;
75167;SDS011;63748;48.088;11.476;2023-02-24T08:03:27;9.27;;;4.28;;
75167;SDS011;63748;48.088;11.476;2023-02-24T08:05:57;10.15;;;4.43;;
75167;SDS011;63748;48.088;11.476;2023-02-24T08:08:37;7.78;;;3.10;;
75167;SDS011;63748;48.088;11.476;2023-02-24T08:11:22;7.10;;;3.00;;
75167;SDS011;63748;48.088;11.476;2023-02-24T08:13:49;7.47;;;2.95;;
75167;SDS011;63748;48.088;11.476;2023-02-24T08:16:15;6.75;;;3.05;;
75167;SDS011;63748;48.088;11.476;2023-02-24T08:18:41;6.35;;;2.90;;
75167;SDS011;63748;48.088;11.476;2023-02-24T08:21:13;8.07;;;3.67;;
75167;SDS011;63748;48.088;11.476;2023-02-24T08:23:40;5.20;;;3.08;;
75167;SDS011;63748;48.088;11.476;2023-02-24T08:26:09;8.00;;;3.97;;
75167;SDS011;63748;48.088;11.476;2023-02-24T08:28:37;8.13;;;4.00;;
75167;SDS011;63748;48.088;11.476;2023-02-24T08:31:04;7.68;;;3.92;;
75167;SDS011;63748;48.088;11.476;2023-02-24T08:33:30;8.90;;;3.90;;
75167;SDS011;63748;48.088;11.476;2023-02-24T08:35:56;5.85;;;3.53;;
75167;SDS011;63748;48.088;11.476;2023-02-24T08:38:26;6.43;;;3.13;;
75167;SDS011;63748;48.088;11.476;2023-02-24T08:41:04;4.95;;;2.85;;
75167;SDS011;63748;48.088;11.476;2023-02-24T08:43:38;6.32;;;3.22;;
75167;SDS011;63748;48.088;11.476;2023-02-24T08:48:35;6.35;;;3.20;;
75167;SDS011;63748;48.088;11.476;2023-02-24T08:51:03;11.20;;;3.72;;
75167;SDS011;63748;48.088;11.476;2023-02-24T08:53:30;6.80;;;3.45;;
75167;SDS011;63748;48.088;11.476;2023-02-24T08:55:57;8.63;;;3.30;;
75167;SDS011;63748;48.088;11.476;2023-02-24T08:58:23;9.70;;;3.85;;
75167;SDS011;63748;48.088;11.476;2023-02-24T09:00:53;8.55;;;3.38;;
75167;SDS011;63748;48.088;11.476;2023-02-24T09:06:05;8.52;;;3.97;;
75167;SDS011;63748;48.088;11.476;2023-02-24T09:08:33;10.07;;;3.78;;
75167;SDS011;63748;48.088;11.476;2023-02-24T09:11:03;12.20;;;3.78;;
75167;SDS011;63748;48.088;11.476;2023-02-24T09:13:33;7.65;;;3.88;;
75167;SDS011;63748;48.088;11.476;2023-02-24T09:16:00;6.55;;;3.30;;
75167;SDS011;63748;48.088;11.476;2023-02-24T09:18:26;8.25;;;4.65;;
75167;SDS011;63748;48.088;11.476;2023-02-24T09:20:57;13.35;;;5.63;;
75167;SDS011;63748;48.088;11.476;2023-02-24T09:23:41;11.07;;;5.20;;
75167;SDS011;63748;48.088;11.476;2023-02-24T09:26:11;11.18;;;5.72;;
75167;SDS011;63748;48.088;11.476;2023-02-24T09:28:38;11.13;;;5.15;;
75167;SDS011;63748;48.088;11.476;2023-02-24T09:31:19;12.82;;;5.78;;
75167;SDS011;63748;48.088;11.476;2023-02-24T09:33:47;16.27;;;5.93;;
75167;SDS011;63748;48.088;11.476;2023-02-24T09:36:18;11.75;;;5.53;;
75167;SDS011;63748;48.088;11.476;2023-02-24T09:38:53;13.35;;;5.28;;
75167;SDS011;63748;48.088;11.476;2023-02-24T09:49:45;15.00;;;5.47;;
75167;SDS011;63748;48.088;11.476;2023-02-24T09:52:12;9.50;;;5.00;;
75167;SDS011;63748;48.088;11.476;2023-02-24T09:54:43;14.45;;;6.65;;
75167;SDS011;63748;48.088;11.476;2023-02-24T09:57:30;13.43;;;6.40;;
75167;SDS011;63748;48.088;11.476;2023-02-24T10:00:03;13.27;;;6.28;;
75167;SDS011;63748;48.088;11.476;2023-02-24T10:03:00;10.02;;;5.53;;
75167;SDS011;63748;48.088;11.476;2023-02-24T10:06:06;12.05;;;6.22;;
75167;SDS011;63748;48.088;11.476;2023-02-24T10:08:37;13.43;;;5.45;;
75167;SDS011;63748;48.088;11.476;2023-02-24T10:11:03;11.63;;;6.30;;
75167;SDS011;63748;48.088;11.476;2023-02-24T10:13:36;13.65;;;5.55;;
75167;SDS011;63748;48.088;11.476;2023-02-24T10:16:03;14.88;;;6.25;;
75167;SDS011;63748;48.088;11.476;2023-02-24T10:26:22;13.35;;;5.82;;
75167;SDS011;63748;48.088;11.476;2023-02-24T10:31:45;13.30;;;6.15;;
75167;SDS011;63748;48.088;11.476;2023-02-24T10:34:13;13.05;;;5.80;;
75167;SDS011;63748;48.088;11.476;2023-02-24T10:36:49;14.65;;;5.60;;
75167;SDS011;63748;48.088;11.476;2023-02-24T10:39:22;12.90;;;5.43;;
75167;SDS011;63748;48.088;11.476;2023-02-24T10:41:58;8.88;;;4.70;;
75167;SDS011;63748;48.088;11.476;2023-02-24T10:44:39;13.98;;;5.80;;
75167;SDS011;63748;48.088;11.476;2023-02-24T10:47:17;11.68;;;5.47;;
75167;SDS011;63748;48.088;11.476;2023-02-24T10:49:47;11.70;;;5.53;;
75167;SDS011;63748;48.088;11.476;2023-02-24T10:52:32;12.30;;;5.68;;
75167;SDS011;63748;48.088;11.476;2023-02-24T10:55:28;12.60;;;5.97;;
75167;SDS011;63748;48.088;11.476;2023-02-24T11:00:53;11.32;;;5.55;;
75167;SDS011;63748;48.088;11.476;2023-02-24T11:03:37;8.73;;;5.07;;
75167;SDS011;63748;48.088;11.476;2023-02-24T11:09:04;10.02;;;4.43;;
75167;SDS011;63748;48.088;11.476;2023-02-24T11:15:01;13.13;;;5.40;;
75167;SDS011;63748;48.088;11.476;2023-02-24T11:17:53;9.63;;;5.03;;
75167;SDS011;63748;48.088;11.476;2023-02-24T11:20:32;8.63;;;4.57;;
75167;SDS011;63748;48.088;11.476;2023-02-24T11:23:00;10.88;;;5.43;;
75167;SDS011;63748;48.088;11.476;2023-02-24T11:25:39;12.38;;;4.97;;
75167;SDS011;63748;48.088;11.476;2023-02-24T11:33:16;7.93;;;4.47;;
75167;SDS011;63748;48.088;11.476;2023-02-24T11:41:00;9.45;;;4.78;;
75167;SDS011;63748;48.088;11.476;2023-02-24T11:43:29;11.07;;;4.35;;
75167;SDS011;63748;48.088;11.476;2023-02-24T11:46:02;17.15;;;5.75;;
75167;SDS011;63748;48.088;11.476;2023-02-24T11:48:35;12.88;;;4.47;;
75167;SDS011;63748;48.088;11.476;2023-02-24T11:56:15;12.07;;;4.75;;
75167;SDS011;63748;48.088;11.476;2023-02-24T11:58:56;9.68;;;5.13;;
75167;SDS011;63748;48.088;11.476;2023-02-24T12:01:40;10.23;;;4.95;;
75167;SDS011;63748;48.088;11.476;2023-02-24T12:09:12;9.55;;;5.18;;
75167;SDS011;63748;48.088;11.476;2023-02-24T12:11:48;12.73;;;5.28;;
75167;SDS011;63748;48.088;11.476;2023-02-24T12:14:19;15.25;;;6.55;;
75167;SDS011;63748;48.088;11.476;2023-02-24T12:16:46;9.02;;;4.95;;
75167;SDS011;63748;48.088;11.476;2023-02-24T12:19:17;19.52;;;7.13;;
75167;SDS011;63748;48.088;11.476;2023-02-24T12:21:48;9.38;;;5.00;;
75167;SDS011;63748;48.088;11.476;2023-02-24T12:24:16;15.63;;;4.95;;
75167;SDS011;63748;48.088;11.476;2023-02-24T12:26:56;14.45;;;5.65;;
75167;SDS011;63748;48.088;11.476;2023-02-24T12:32:12;10.93;;;4.55;;
75167;SDS011;63748;48.088;11.476;2023-02-24T12:37:19;7.43;;;3.70;;
75167;SDS011;63748;48.088;11.476;2023-02-24T12:47:56;10.70;;;5.15;;
75167;SDS011;63748;48.088;11.476;2023-02-24T12:50:36;11.63;;;4.50;;
75167;SDS011;63748;48.088;11.476;2023-02-24T12:53:08;10.75;;;4.93;;
75167;SDS011;63748;48.088;11.476;2023-02-24T12:58:24;10.65;;;4.40;;
75167;SDS011;63748;48.088;11.476;2023-02-24T13:04:12;9.02;;;4.90;;
75167;SDS011;63748;48.088;11.476;2023-02-24T13:06:50;11.13;;;5.38;;
75167;SDS011;63748;48.088;11.476;2023-02-24T13:14:15;12.27;;;5.50;;
75167;SDS011;63748;48.088;11.476;2023-02-24T13:16:45;14.88;;;6.38;;
75167;SDS011;63748;48.088;11.476;2023-02-24T13:21:53;13.20;;;5.13;;
75167;SDS011;63748;48.088;11.476;2023-02-24T13:24:20;11.02;;;5.43;;
75167;SDS011;63748;48.088;11.476;2023-02-24T13:26:46;19.95;;;7.43;;
75167;SDS011;63748;48.088;11.476;2023-02-24T13:29:13;15.68;;;6.97;;
75167;SDS011;63748;48.088;11.476;2023-02-24T13:31:40;15.43;;;7.72;;
75167;SDS011;63748;48.088;11.476;2023-02-24T13:34:14;13.63;;;6.53;;
75167;SDS011;63748;48.088;11.476;2023-02-24T13:36:53;11.63;;;6.57;;
75167;SDS011;63748;48.088;11.476;2023-02-24T13:39:38;15.93;;;6.80;;
75167;SDS011;63748;48.088;11.476;2023-02-24T13:42:20;14.85;;;7.75;;
75167;SDS011;63748;48.088;11.476;2023-02-24T13:47:35;12.48;;;7.45;;
75167;SDS011;63748;48.088;11.476;2023-02-24T13:52:46;16.65;;;7.07;;
75167;SDS011;63748;48.088;11.476;2023-02-24T13:55:59;16.73;;;6.53;;
75167;SDS011;63748;48.088;11.476;2023-02-24T14:00:55;14.10;;;7.25;;
75167;SDS011;63748;48.088;11.476;2023-02-24T14:03:25;15.52;;;7.10;;
75167;SDS011;63748;48.088;11.476;2023-02-24T14:05:52;19.85;;;7.57;;
75167;SDS011;63748;48.088;11.476;2023-02-24T14:08:19;17.25;;;7.80;;
75167;SDS011;63748;48.088;11.476;2023-02-24T14:10:46;16.92;;;8.27;;
75167;SDS011;63748;48.088;11.476;2023-02-24T14:13:18;16.27;;;7.85;;
75167;SDS011;63748;48.088;11.476;2023-02-24T14:15:46;18.35;;;7.85;;
75167;SDS011;63748;48.088;11.476;2023-02-24T14:18:20;14.75;;;7.93;;
75167;SDS011;63748;48.088;11.476;2023-02-24T14:20:46;18.95;;;8.68;;
75167;SDS011;63748;48.088;11.476;2023-02-24T14:28:24;19.15;;;7.55;;
75167;SDS011;63748;48.088;11.476;2023-02-24T14:30:52;16.42;;;7.10;;
75167;SDS011;63748;48.088;11.476;2023-02-24T14:35:54;15.38;;;7.70;;
75167;SDS011;63748;48.088;11.476;2023-02-24T14:38:28;14.73;;;7.35;;
75167;SDS011;63748;48.088;11.476;2023-02-24T14:40:54;18.05;;;8.10;;
75167;SDS011;63748;48.088;11.476;2023-02-24T14:43:20;17.33;;;7.43;;
75167;SDS011;63748;48.088;11.476;2023-02-24T14:45:50;15.88;;;8.13;;
75167;SDS011;63748;48.088;11.476;2023-02-24T14:50:50;20.73;;;9.40;;
75167;SDS011;63748;48.088;11.476;2023-02-24T14:53:16;18.90;;;8.10;;
75167;SDS011;63748;48.088;11.476;2023-02-24T14:55:45;17.83;;;8.30;;
75167;SDS011;63748;48.088;11.476;2023-02-24T14:58:20;16.58;;;8.90;;
75167;SDS011;63748;48.088;11.476;2023-02-24T15:00:50;16.98;;;8.35;;
75167;SDS011;63748;48.088;11.476;2023-02-24T15:03:22;18.70;;;8.95;;
75167;SDS011;63748;48.088;11.476;2023-02-24T15:05:50;15.18;;;7.88;;
75167;SDS011;63748;48.088;11.476;2023-02-24T15:08:34;17.52;;;8.20;;
75167;SDS011;63748;48.088;11.476;2023-02-24T15:11:03;16.42;;;7.97;;
75167;SDS011;63748;48.088;11.476;2023-02-24T15:13:34;14.05;;;8.05;;
75167;SDS011;63748;48.088;11.476;2023-02-24T15:16:03;20.30;;;8.57;;
75167;SDS011;63748;48.088;11.476;2023-02-24T15:18:31;17.88;;;8.93;;
75167;SDS011;63748;48.088;11.476;2023-02-24T15:21:04;19.05;;;9.23;;
75167;SDS011;63748;48.088;11.476;2023-02-24T15:23:32;17.20;;;8.18;;
75167;SDS011;63748;48.088;11.476;2023-02-24T15:25:58;13.57;;;6.88;;
75167;SDS011;63748;48.088;11.476;2023-02-24T15:28:26;17.48;;;8.50;;
75167;SDS011;63748;48.088;11.476;2023-02-24T15:31:05;23.48;;;9.25;;
75167;SDS011;63748;48.088;11.476;2023-02-24T15:33:36;17.58;;;8.93;;
75167;SDS011;63748;48.088;11.476;2023-02-24T15:36:05;17.13;;;7.53;;
75167;SDS011;63748;48.088;11.476;2023-02-24T15:38:33;22.88;;;9.27;;
75167;SDS011;63748;48.088;11.476;2023-02-24T15:43:44;14.77;;;7.32;;
75167;SDS011;63748;48.088;11.476;2023-02-24T15:48:44;18.92;;;8.55;;
75167;SDS011;63748;48.088;11.476;2023-02-24T15:51:21;17.30;;;7.43;;
75167;SDS011;63748;48.088;11.476;2023-02-24T15:53:48;16.83;;;7.85;;
75167;SDS011;63748;48.088;11.476;2023-02-24T15:56:14;14.57;;;7.50;;
75167;SDS011;63748;48.088;11.476;2023-02-24T15:58:41;16.58;;;6.95;;
75167;SDS011;63748;48.088;11.476;2023-02-24T16:01:12;17.95;;;7.00;;
75167;SDS011;63748;48.088;11.476;2023-02-24T16:03:38;19.23;;;7.85;;
75167;SDS011;63748;48.088;11.476;2023-02-24T16:06:04;12.65;;;6.15;;
75167;SDS011;63748;48.088;11.476;2023-02-24T16:08:31;15.20;;;7.00;;
75167;SDS011;63748;48.088;11.476;2023-02-24T16:10:58;16.27;;;7.47;;
75167;SDS011;63748;48.088;11.476;2023-02-24T16:13:24;15.18;;;7.07;;
75167;SDS011;63748;48.088;11.476;2023-02-24T16:15:51;12.07;;;6.47;;
75167;SDS011;63748;48.088;11.476;2023-02-24T16:18:21;20.52;;;7.63;;
75167;SDS011;63748;48.088;11.476;2023-02-24T16:20:48;18.58;;;7.20;;
75167;SDS011;63748;48.088;11.476;2023-02-24T16:23:21;17.30;;;7.85;;
75167;SDS011;63748;48.088;11.476;2023-02-24T16:25:48;17.33;;;7.85;;
75167;SDS011;63748;48.088;11.476;2023-02-24T16:28:16;13.57;;;7.25;;
75167;SDS011;63748;48.088;11.476;2023-02-24T16:30:43;19.10;;;7.55;;
75167;SDS011;63748;48.088;11.476;2023-02-24T16:33:10;16.48;;;6.60;;
75167;SDS011;63748;48.088;11.476;2023-02-24T16:35:37;14.63;;;6.95;;
75167;SDS011;63748;48.088;11.476;2023-02-24T16:38:05;13.70;;;7.22;;
75167;SDS011;63748;48.088;11.476;2023-02-24T16:40:33;18.42;;;8.27;;
75167;SDS011;63748;48.088;11.476;2023-02-24T16:43:02;19.63;;;8.02;;
75167;SDS011;63748;48.088;11.476;2023-02-24T16:45:29;12.48;;;6.85;;
75167;SDS011;63748;48.088;11.476;2023-02-24T16:47:56;16.77;;;7.05;;
75167;SDS011;63748;48.088;11.476;2023-02-24T16:50:25;13.70;;;7.03;;
75167;SDS011;63748;48.088;11.476;2023-02-24T16:52:52;18.92;;;8.18;;
75167;SDS011;63748;48.088;11.476;2023-02-24T16:55:18;18.95;;;7.43;;
75167;SDS011;63748;48.088;11.476;2023-02-24T16:57:44;16.70;;;6.55;;
75167;SDS011;63748;48.088;11.476;2023-02-24T17:00:12;15.35;;;6.45;;
75167;SDS011;63748;48.088;11.476;2023-02-24T17:02:38;19.15;;;7.47;;
75167;SDS011;63748;48.088;11.476;2023-02-24T17:05:06;13.50;;;6.10;;
75167;SDS011;63748;48.088;11.476;2023-02-24T17:07:32;17.65;;;6.78;;
75167;SDS011;63748;48.088;11.476;2023-02-24T17:10:03;13.48;;;5.78;;
75167;SDS011;63748;48.088;11.476;2023-02-24T17:12:30;12.65;;;5.50;;
75167;SDS011;63748;48.088;11.476;2023-02-24T17:14:56;11.13;;;4.40;;
75167;SDS011;63748;48.088;11.476;2023-02-24T17:17:23;6.65;;;3.53;;